sensor_id;sensor_type;location;lat;lon;timestamp;P1;durP1;ratioP1;P2;durP2;ratioP2
5867;SDS011;2960;49.142;7.768;2024-03-22T00:01:52;10.20;;;4.10;;
5867;SDS011;2960;49.142;7.768;2024-03-22T00:04:21;10.40;;;3.90;;
5867;SDS011;2960;49.142;7.768;2024-03-22T00:06:49;11.60;;;3.80;;
5867;SDS011;2960;49.142;7.768;2024-03-22T00:09:15;10.47;;;4.03;;
5867;SDS011;2960;49.142;7.768;2024-03-22T00:11:43;10.33;;;4.37;;
5867;SDS011;2960;49.142;7.768;2024-03-22T00:14:10;11.03;;;3.97;;
5867;SDS011;2960;49.142;7.768;2024-03-22T00:16:38;11.60;;;4.13;;
5867;SDS011;2960;49.142;7.768;2024-03-22T00:19:04;11.30;;;4.70;;
5867;SDS011;2960;49.142;7.768;2024-03-22T00:21:33;10.47;;;4.37;;
5867;SDS011;2960;49.142;7.768;2024-03-22T00:24:00;11.17;;;4.10;;
5867;SDS011;2960;49.142;7.768;2024-03-22T00:26:27;10.87;;;4.40;;
5867;SDS011;2960;49.142;7.768;2024-03-22T00:28:53;10.23;;;3.83;;
5867;SDS011;2960;49.142;7.768;2024-03-22T00:31:22;11.00;;;4.03;;
5867;SDS011;2960;49.142;7.768;2024-03-22T00:33:49;10.30;;;4.00;;
5867;SDS011;2960;49.142;7.768;2024-03-22T00:36:16;11.30;;;4.13;;
5867;SDS011;2960;49.142;7.768;2024-03-22T00:38:43;10.23;;;4.30;;
5867;SDS011;2960;49.142;7.768;2024-03-22T00:41:11;10.63;;;4.33;;
5867;SDS011;2960;49.142;7.768;2024-03-22T00:43:37;10.30;;;4.03;;
5867;SDS011;2960;49.142;7.768;2024-03-22T00:46:04;11.10;;;4.37;;
5867;SDS011;2960;49.142;7.768;2024-03-22T00:48:30;11.43;;;4.70;;
5867;SDS011;2960;49.142;7.768;2024-03-22T00:50:57;10.47;;;4.13;;
5867;SDS011;2960;49.142;7.768;2024-03-22T00:53:23;11.43;;;4.50;;
5867;SDS011;2960;49.142;7.768;2024-03-22T00:55:53;10.23;;;3.80;;
5867;SDS011;2960;49.142;7.768;2024-03-22T00:58:21;9.77;;;3.50;;
5867;SDS011;2960;49.142;7.768;2024-03-22T01:00:48;10.97;;;4.20;;
5867;SDS011;2960;49.142;7.768;2024-03-22T01:03:14;10.07;;;4.17;;
5867;SDS011;2960;49.142;7.768;2024-03-22T01:05:41;10.60;;;4.17;;
5867;SDS011;2960;49.142;7.768;2024-03-22T01:08:07;10.07;;;4.30;;
5867;SDS011;2960;49.142;7.768;2024-03-22T01:10:34;10.10;;;4.40;;
5867;SDS011;2960;49.142;7.768;2024-03-22T01:13:02;10.53;;;4.07;;
5867;SDS011;2960;49.142;7.768;2024-03-22T01:15:29;9.90;;;3.73;;
5867;SDS011;2960;49.142;7.768;2024-03-22T01:17:56;10.20;;;3.83;;
5867;SDS011;2960;49.142;7.768;2024-03-22T01:20:23;10.30;;;4.00;;
5867;SDS011;2960;49.142;7.768;2024-03-22T01:22:49;10.30;;;3.87;;
5867;SDS011;2960;49.142;7.768;2024-03-22T01:25:16;10.57;;;4.00;;
5867;SDS011;2960;49.142;7.768;2024-03-22T01:27:43;10.60;;;3.90;;
5867;SDS011;2960;49.142;7.768;2024-03-22T01:30:11;10.80;;;3.73;;
5867;SDS011;2960;49.142;7.768;2024-03-22T01:32:37;10.20;;;3.80;;
5867;SDS011;2960;49.142;7.768;2024-03-22T01:35:05;10.73;;;4.10;;
5867;SDS011;2960;49.142;7.768;2024-03-22T01:37:31;10.13;;;3.90;;
5867;SDS011;2960;49.142;7.768;2024-03-22T01:39:58;10.40;;;3.80;;
5867;SDS011;2960;49.142;7.768;2024-03-22T01:42:25;9.77;;;3.67;;
5867;SDS011;2960;49.142;7.768;2024-03-22T01:44:53;10.87;;;3.80;;
5867;SDS011;2960;49.142;7.768;2024-03-22T01:47:20;10.00;;;3.80;;
5867;SDS011;2960;49.142;7.768;2024-03-22T01:49:47;9.80;;;3.60;;
5867;SDS011;2960;49.142;7.768;2024-03-22T01:52:16;10.17;;;3.83;;
5867;SDS011;2960;49.142;7.768;2024-03-22T01:54:43;10.13;;;4.00;;
5867;SDS011;2960;49.142;7.768;2024-03-22T01:57:09;10.00;;;3.70;;
5867;SDS011;2960;49.142;7.768;2024-03-22T01:59:37;9.80;;;3.60;;
5867;SDS011;2960;49.142;7.768;2024-03-22T02:02:04;10.00;;;3.77;;
5867;SDS011;2960;49.142;7.768;2024-03-22T02:04:33;10.10;;;3.93;;
5867;SDS011;2960;49.142;7.768;2024-03-22T02:06:59;9.80;;;3.80;;
5867;SDS011;2960;49.142;7.768;2024-03-22T02:09:26;10.00;;;4.00;;
5867;SDS011;2960;49.142;7.768;2024-03-22T02:11:52;9.70;;;3.77;;
5867;SDS011;2960;49.142;7.768;2024-03-22T02:14:19;10.43;;;3.90;;
5867;SDS011;2960;49.142;7.768;2024-03-22T02:16:45;10.20;;;3.70;;
5867;SDS011;2960;49.142;7.768;2024-03-22T02:19:13;9.70;;;3.70;;
5867;SDS011;2960;49.142;7.768;2024-03-22T02:21:40;10.67;;;3.80;;
5867;SDS011;2960;49.142;7.768;2024-03-22T02:24:09;9.97;;;4.03;;
5867;SDS011;2960;49.142;7.768;2024-03-22T02:26:35;10.20;;;3.80;;
5867;SDS011;2960;49.142;7.768;2024-03-22T02:29:02;12.33;;;3.80;;
5867;SDS011;2960;49.142;7.768;2024-03-22T02:31:29;10.80;;;3.60;;
5867;SDS011;2960;49.142;7.768;2024-03-22T02:33:57;10.37;;;3.80;;
5867;SDS011;2960;49.142;7.768;2024-03-22T02:36:23;9.90;;;3.73;;
5867;SDS011;2960;49.142;7.768;2024-03-22T02:38:50;10.30;;;3.83;;
5867;SDS011;2960;49.142;7.768;2024-03-22T02:41:18;10.17;;;3.83;;
5867;SDS011;2960;49.142;7.768;2024-03-22T02:43:45;10.00;;;3.50;;
5867;SDS011;2960;49.142;7.768;2024-03-22T02:46:11;10.10;;;3.40;;
5867;SDS011;2960;49.142;7.768;2024-03-22T02:48:38;9.90;;;3.57;;
5867;SDS011;2960;49.142;7.768;2024-03-22T02:51:04;9.60;;;3.30;;
5867;SDS011;2960;49.142;7.768;2024-03-22T02:53:31;10.63;;;3.90;;
5867;SDS011;2960;49.142;7.768;2024-03-22T02:55:59;10.73;;;3.87;;
5867;SDS011;2960;49.142;7.768;2024-03-22T02:58:28;9.80;;;3.53;;
5867;SDS011;2960;49.142;7.768;2024-03-22T03:00:54;11.03;;;3.70;;
5867;SDS011;2960;49.142;7.768;2024-03-22T03:03:21;10.23;;;3.93;;
5867;SDS011;2960;49.142;7.768;2024-03-22T03:05:47;10.20;;;3.60;;
5867;SDS011;2960;49.142;7.768;2024-03-22T03:08:15;9.47;;;3.30;;
5867;SDS011;2960;49.142;7.768;2024-03-22T03:10:41;10.33;;;3.33;;
5867;SDS011;2960;49.142;7.768;2024-03-22T03:13:09;10.40;;;4.10;;
5867;SDS011;2960;49.142;7.768;2024-03-22T03:15:36;11.30;;;3.93;;
5867;SDS011;2960;49.142;7.768;2024-03-22T03:18:03;9.80;;;3.60;;
5867;SDS011;2960;49.142;7.768;2024-03-22T03:20:30;9.80;;;3.60;;
5867;SDS011;2960;49.142;7.768;2024-03-22T03:22:57;9.70;;;3.73;;
5867;SDS011;2960;49.142;7.768;2024-03-22T03:25:24;10.10;;;3.80;;
5867;SDS011;2960;49.142;7.768;2024-03-22T03:27:52;9.70;;;3.70;;
5867;SDS011;2960;49.142;7.768;2024-03-22T03:30:18;10.00;;;3.70;;
5867;SDS011;2960;49.142;7.768;2024-03-22T03:32:46;11.10;;;4.00;;
5867;SDS011;2960;49.142;7.768;2024-03-22T03:35:12;10.20;;;3.50;;
5867;SDS011;2960;49.142;7.768;2024-03-22T03:37:40;9.50;;;3.60;;
5867;SDS011;2960;49.142;7.768;2024-03-22T03:40:07;10.10;;;3.53;;
5867;SDS011;2960;49.142;7.768;2024-03-22T03:42:35;10.20;;;3.50;;
5867;SDS011;2960;49.142;7.768;2024-03-22T03:45:01;11.00;;;3.97;;
5867;SDS011;2960;49.142;7.768;2024-03-22T03:47:28;10.03;;;4.00;;
5867;SDS011;2960;49.142;7.768;2024-03-22T03:49:56;10.03;;;3.60;;
5867;SDS011;2960;49.142;7.768;2024-03-22T03:52:23;10.60;;;3.90;;
5867;SDS011;2960;49.142;7.768;2024-03-22T03:54:50;10.10;;;3.53;;
5867;SDS011;2960;49.142;7.768;2024-03-22T03:57:17;9.57;;;3.60;;
5867;SDS011;2960;49.142;7.768;2024-03-22T03:59:43;9.70;;;3.60;;
5867;SDS011;2960;49.142;7.768;2024-03-22T04:02:10;9.80;;;3.40;;
5867;SDS011;2960;49.142;7.768;2024-03-22T04:04:37;9.60;;;3.13;;
5867;SDS011;2960;49.142;7.768;2024-03-22T04:07:05;9.50;;;3.40;;
5867;SDS011;2960;49.142;7.768;2024-03-22T04:09:31;10.60;;;3.37;;
5867;SDS011;2960;49.142;7.768;2024-03-22T04:11:59;10.20;;;3.40;;
5867;SDS011;2960;49.142;7.768;2024-03-22T04:14:25;9.70;;;3.33;;
5867;SDS011;2960;49.142;7.768;2024-03-22T04:16:52;9.77;;;3.60;;
5867;SDS011;2960;49.142;7.768;2024-03-22T04:19:19;9.80;;;3.60;;
5867;SDS011;2960;49.142;7.768;2024-03-22T04:21:47;9.83;;;3.43;;
5867;SDS011;2960;49.142;7.768;2024-03-22T04:24:16;9.70;;;3.30;;
5867;SDS011;2960;49.142;7.768;2024-03-22T04:26:43;9.93;;;3.30;;
5867;SDS011;2960;49.142;7.768;2024-03-22T04:29:09;9.50;;;3.33;;
5867;SDS011;2960;49.142;7.768;2024-03-22T04:31:36;9.43;;;3.30;;
5867;SDS011;2960;49.142;7.768;2024-03-22T04:34:02;10.13;;;3.87;;
5867;SDS011;2960;49.142;7.768;2024-03-22T04:36:32;12.73;;;3.70;;
5867;SDS011;2960;49.142;7.768;2024-03-22T04:38:58;9.23;;;3.27;;
5867;SDS011;2960;49.142;7.768;2024-03-22T04:41:27;9.30;;;3.20;;
5867;SDS011;2960;49.142;7.768;2024-03-22T04:43:54;10.10;;;3.80;;
5867;SDS011;2960;49.142;7.768;2024-03-22T04:46:21;10.07;;;3.60;;
5867;SDS011;2960;49.142;7.768;2024-03-22T04:48:47;9.73;;;3.30;;
5867;SDS011;2960;49.142;7.768;2024-03-22T04:51:14;9.80;;;3.13;;
5867;SDS011;2960;49.142;7.768;2024-03-22T04:53:40;9.57;;;3.27;;
5867;SDS011;2960;49.142;7.768;2024-03-22T04:56:09;9.33;;;3.10;;
5867;SDS011;2960;49.142;7.768;2024-03-22T04:58:36;9.60;;;3.10;;
5867;SDS011;2960;49.142;7.768;2024-03-22T05:01:03;10.13;;;3.30;;
5867;SDS011;2960;49.142;7.768;2024-03-22T05:03:29;10.07;;;3.47;;
5867;SDS011;2960;49.142;7.768;2024-03-22T05:05:57;10.87;;;3.57;;
5867;SDS011;2960;49.142;7.768;2024-03-22T05:08:23;10.10;;;3.43;;
5867;SDS011;2960;49.142;7.768;2024-03-22T05:10:50;10.00;;;3.37;;
5867;SDS011;2960;49.142;7.768;2024-03-22T05:13:18;9.47;;;3.20;;
5867;SDS011;2960;49.142;7.768;2024-03-22T05:15:46;10.20;;;3.50;;
5867;SDS011;2960;49.142;7.768;2024-03-22T05:18:13;9.77;;;3.30;;
5867;SDS011;2960;49.142;7.768;2024-03-22T05:20:40;10.33;;;3.80;;
5867;SDS011;2960;49.142;7.768;2024-03-22T05:23:06;9.87;;;3.47;;
5867;SDS011;2960;49.142;7.768;2024-03-22T05:25:33;9.80;;;3.30;;
5867;SDS011;2960;49.142;7.768;2024-03-22T05:27:59;9.70;;;3.27;;
5867;SDS011;2960;49.142;7.768;2024-03-22T05:30:27;9.90;;;3.10;;
5867;SDS011;2960;49.142;7.768;2024-03-22T05:32:54;9.70;;;3.30;;
5867;SDS011;2960;49.142;7.768;2024-03-22T05:35:21;9.90;;;3.40;;
5867;SDS011;2960;49.142;7.768;2024-03-22T05:37:47;9.60;;;3.20;;
5867;SDS011;2960;49.142;7.768;2024-03-22T05:40:17;9.40;;;3.17;;
5867;SDS011;2960;49.142;7.768;2024-03-22T05:42:43;9.73;;;3.50;;
5867;SDS011;2960;49.142;7.768;2024-03-22T05:45:15;10.10;;;3.70;;
5867;SDS011;2960;49.142;7.768;2024-03-22T05:47:41;9.40;;;3.30;;
5867;SDS011;2960;49.142;7.768;2024-03-22T05:50:09;10.20;;;3.60;;
5867;SDS011;2960;49.142;7.768;2024-03-22T05:52:36;10.90;;;3.60;;
5867;SDS011;2960;49.142;7.768;2024-03-22T05:55:03;9.70;;;3.43;;
5867;SDS011;2960;49.142;7.768;2024-03-22T05:57:30;10.00;;;3.70;;
5867;SDS011;2960;49.142;7.768;2024-03-22T05:59:57;10.30;;;3.20;;
5867;SDS011;2960;49.142;7.768;2024-03-22T06:02:23;9.87;;;3.60;;
5867;SDS011;2960;49.142;7.768;2024-03-22T06:04:50;10.10;;;3.70;;
5867;SDS011;2960;49.142;7.768;2024-03-22T06:07:18;10.03;;;3.70;;
5867;SDS011;2960;49.142;7.768;2024-03-22T06:09:45;9.40;;;3.27;;
5867;SDS011;2960;49.142;7.768;2024-03-22T06:12:11;10.17;;;3.50;;
5867;SDS011;2960;49.142;7.768;2024-03-22T06:14:43;9.90;;;3.40;;
5867;SDS011;2960;49.142;7.768;2024-03-22T06:17:09;11.23;;;3.70;;
5867;SDS011;2960;49.142;7.768;2024-03-22T06:19:37;12.07;;;3.70;;
5867;SDS011;2960;49.142;7.768;2024-03-22T06:22:03;9.50;;;3.30;;
5867;SDS011;2960;49.142;7.768;2024-03-22T06:24:31;11.20;;;3.70;;
5867;SDS011;2960;49.142;7.768;2024-03-22T06:26:58;10.00;;;3.50;;
5867;SDS011;2960;49.142;7.768;2024-03-22T06:29:25;9.90;;;3.40;;
5867;SDS011;2960;49.142;7.768;2024-03-22T06:31:52;9.90;;;3.67;;
5867;SDS011;2960;49.142;7.768;2024-03-22T06:34:19;10.67;;;3.50;;
5867;SDS011;2960;49.142;7.768;2024-03-22T06:36:45;10.17;;;3.60;;
5867;SDS011;2960;49.142;7.768;2024-03-22T06:39:12;9.97;;;3.50;;
5867;SDS011;2960;49.142;7.768;2024-03-22T06:41:41;9.67;;;3.50;;
5867;SDS011;2960;49.142;7.768;2024-03-22T06:44:08;10.17;;;3.40;;
5867;SDS011;2960;49.142;7.768;2024-03-22T06:46:37;11.50;;;3.40;;
5867;SDS011;2960;49.142;7.768;2024-03-22T06:49:04;10.37;;;3.70;;
5867;SDS011;2960;49.142;7.768;2024-03-22T06:51:30;10.57;;;3.20;;
5867;SDS011;2960;49.142;7.768;2024-03-22T06:53:57;9.73;;;3.27;;
5867;SDS011;2960;49.142;7.768;2024-03-22T06:56:23;9.17;;;3.03;;
5867;SDS011;2960;49.142;7.768;2024-03-22T06:58:52;9.67;;;3.23;;
5867;SDS011;2960;49.142;7.768;2024-03-22T07:01:18;9.67;;;3.30;;
5867;SDS011;2960;49.142;7.768;2024-03-22T07:03:46;9.90;;;3.70;;
5867;SDS011;2960;49.142;7.768;2024-03-22T07:06:13;9.73;;;3.53;;
5867;SDS011;2960;49.142;7.768;2024-03-22T07:08:40;11.97;;;3.90;;
5867;SDS011;2960;49.142;7.768;2024-03-22T07:11:07;10.40;;;4.00;;
5867;SDS011;2960;49.142;7.768;2024-03-22T07:13:34;11.27;;;3.90;;
5867;SDS011;2960;49.142;7.768;2024-03-22T07:16:02;10.70;;;4.10;;
5867;SDS011;2960;49.142;7.768;2024-03-22T07:18:30;10.50;;;4.13;;
5867;SDS011;2960;49.142;7.768;2024-03-22T07:20:56;10.00;;;3.90;;
5867;SDS011;2960;49.142;7.768;2024-03-22T07:23:26;10.80;;;3.90;;
5867;SDS011;2960;49.142;7.768;2024-03-22T07:25:52;12.33;;;4.40;;
5867;SDS011;2960;49.142;7.768;2024-03-22T07:28:19;10.50;;;4.17;;
5867;SDS011;2960;49.142;7.768;2024-03-22T07:30:46;11.70;;;4.20;;
5867;SDS011;2960;49.142;7.768;2024-03-22T07:33:15;10.17;;;3.80;;
5867;SDS011;2960;49.142;7.768;2024-03-22T07:35:43;11.13;;;4.40;;
5867;SDS011;2960;49.142;7.768;2024-03-22T07:38:10;10.40;;;4.03;;
5867;SDS011;2960;49.142;7.768;2024-03-22T07:40:36;10.90;;;4.47;;
5867;SDS011;2960;49.142;7.768;2024-03-22T07:43:03;10.10;;;3.90;;
5867;SDS011;2960;49.142;7.768;2024-03-22T07:45:32;11.30;;;4.40;;
5867;SDS011;2960;49.142;7.768;2024-03-22T07:48:00;10.30;;;3.80;;
5867;SDS011;2960;49.142;7.768;2024-03-22T07:50:28;10.77;;;4.30;;
5867;SDS011;2960;49.142;7.768;2024-03-22T07:52:55;11.30;;;4.50;;
5867;SDS011;2960;49.142;7.768;2024-03-22T07:55:21;11.07;;;4.47;;
5867;SDS011;2960;49.142;7.768;2024-03-22T07:57:49;10.90;;;4.17;;
5867;SDS011;2960;49.142;7.768;2024-03-22T08:00:16;10.90;;;4.10;;
5867;SDS011;2960;49.142;7.768;2024-03-22T08:02:43;10.63;;;3.90;;
5867;SDS011;2960;49.142;7.768;2024-03-22T08:05:09;10.53;;;3.90;;
5867;SDS011;2960;49.142;7.768;2024-03-22T08:07:38;10.37;;;4.30;;
5867;SDS011;2960;49.142;7.768;2024-03-22T08:10:04;10.73;;;4.20;;
5867;SDS011;2960;49.142;7.768;2024-03-22T08:12:33;12.37;;;4.37;;
5867;SDS011;2960;49.142;7.768;2024-03-22T08:14:59;10.70;;;4.13;;
5867;SDS011;2960;49.142;7.768;2024-03-22T08:17:26;10.43;;;3.83;;
5867;SDS011;2960;49.142;7.768;2024-03-22T08:19:52;11.70;;;4.37;;
5867;SDS011;2960;49.142;7.768;2024-03-22T08:22:19;11.73;;;4.20;;
5867;SDS011;2960;49.142;7.768;2024-03-22T08:24:47;11.27;;;4.27;;
5867;SDS011;2960;49.142;7.768;2024-03-22T08:27:14;11.13;;;3.90;;
5867;SDS011;2960;49.142;7.768;2024-03-22T08:29:40;10.70;;;4.30;;
5867;SDS011;2960;49.142;7.768;2024-03-22T08:32:07;10.63;;;3.90;;
5867;SDS011;2960;49.142;7.768;2024-03-22T08:34:33;10.57;;;3.87;;
5867;SDS011;2960;49.142;7.768;2024-03-22T08:37:01;11.10;;;4.60;;
5867;SDS011;2960;49.142;7.768;2024-03-22T08:39:28;11.37;;;4.40;;
5867;SDS011;2960;49.142;7.768;2024-03-22T08:41:58;11.07;;;3.97;;
5867;SDS011;2960;49.142;7.768;2024-03-22T08:44:24;12.07;;;4.20;;
5867;SDS011;2960;49.142;7.768;2024-03-22T08:46:52;10.40;;;3.90;;
5867;SDS011;2960;49.142;7.768;2024-03-22T08:49:18;14.23;;;4.40;;
5867;SDS011;2960;49.142;7.768;2024-03-22T08:51:45;11.10;;;4.23;;
5867;SDS011;2960;49.142;7.768;2024-03-22T08:54:11;10.43;;;3.80;;
5867;SDS011;2960;49.142;7.768;2024-03-22T08:56:38;10.20;;;3.87;;
5867;SDS011;2960;49.142;7.768;2024-03-22T08:59:06;11.37;;;4.00;;
5867;SDS011;2960;49.142;7.768;2024-03-22T09:01:33;10.40;;;4.10;;
5867;SDS011;2960;49.142;7.768;2024-03-22T09:04:00;10.13;;;3.60;;
5867;SDS011;2960;49.142;7.768;2024-03-22T09:06:27;10.30;;;3.83;;
5867;SDS011;2960;49.142;7.768;2024-03-22T09:08:53;10.87;;;3.83;;
5867;SDS011;2960;49.142;7.768;2024-03-22T09:11:22;10.93;;;4.57;;
5867;SDS011;2960;49.142;7.768;2024-03-22T09:13:51;11.53;;;4.30;;
5867;SDS011;2960;49.142;7.768;2024-03-22T09:16:20;11.03;;;4.13;;
5867;SDS011;2960;49.142;7.768;2024-03-22T09:18:46;11.20;;;4.30;;
5867;SDS011;2960;49.142;7.768;2024-03-22T09:21:13;11.10;;;4.10;;
5867;SDS011;2960;49.142;7.768;2024-03-22T09:23:39;10.90;;;3.80;;
5867;SDS011;2960;49.142;7.768;2024-03-22T09:26:06;10.27;;;3.77;;
5867;SDS011;2960;49.142;7.768;2024-03-22T09:28:33;10.93;;;4.10;;
5867;SDS011;2960;49.142;7.768;2024-03-22T09:31:03;10.10;;;3.63;;
5867;SDS011;2960;49.142;7.768;2024-03-22T09:33:32;10.63;;;4.07;;
5867;SDS011;2960;49.142;7.768;2024-03-22T09:35:59;10.60;;;4.10;;
5867;SDS011;2960;49.142;7.768;2024-03-22T09:38:26;10.70;;;3.80;;
5867;SDS011;2960;49.142;7.768;2024-03-22T09:40:53;11.40;;;4.23;;
5867;SDS011;2960;49.142;7.768;2024-03-22T09:43:20;10.60;;;4.37;;
5867;SDS011;2960;49.142;7.768;2024-03-22T09:45:49;10.77;;;3.90;;
5867;SDS011;2960;49.142;7.768;2024-03-22T09:48:15;10.93;;;3.77;;
5867;SDS011;2960;49.142;7.768;2024-03-22T09:50:45;10.87;;;4.37;;
5867;SDS011;2960;49.142;7.768;2024-03-22T09:53:12;10.50;;;4.20;;
5867;SDS011;2960;49.142;7.768;2024-03-22T09:55:40;10.97;;;4.13;;
5867;SDS011;2960;49.142;7.768;2024-03-22T09:58:09;11.53;;;4.53;;
5867;SDS011;2960;49.142;7.768;2024-03-22T10:00:36;11.70;;;4.20;;
5867;SDS011;2960;49.142;7.768;2024-03-22T10:03:03;10.87;;;4.07;;
5867;SDS011;2960;49.142;7.768;2024-03-22T10:05:31;11.80;;;4.40;;
5867;SDS011;2960;49.142;7.768;2024-03-22T10:07:58;12.13;;;4.50;;
5867;SDS011;2960;49.142;7.768;2024-03-22T10:10:26;10.80;;;3.97;;
5867;SDS011;2960;49.142;7.768;2024-03-22T10:12:53;12.10;;;4.10;;
5867;SDS011;2960;49.142;7.768;2024-03-22T10:15:20;11.10;;;4.23;;
5867;SDS011;2960;49.142;7.768;2024-03-22T10:17:46;11.10;;;3.93;;
5867;SDS011;2960;49.142;7.768;2024-03-22T10:20:13;10.67;;;4.03;;
5867;SDS011;2960;49.142;7.768;2024-03-22T10:22:41;11.80;;;4.57;;
5867;SDS011;2960;49.142;7.768;2024-03-22T10:25:10;11.00;;;4.57;;
5867;SDS011;2960;49.142;7.768;2024-03-22T10:27:38;11.30;;;4.40;;
5867;SDS011;2960;49.142;7.768;2024-03-22T10:30:07;11.63;;;4.53;;
5867;SDS011;2960;49.142;7.768;2024-03-22T10:32:35;11.60;;;4.60;;
5867;SDS011;2960;49.142;7.768;2024-03-22T10:35:03;13.70;;;4.60;;
5867;SDS011;2960;49.142;7.768;2024-03-22T10:37:31;12.70;;;4.90;;
5867;SDS011;2960;49.142;7.768;2024-03-22T10:40:00;12.07;;;4.47;;
5867;SDS011;2960;49.142;7.768;2024-03-22T10:42:34;12.60;;;4.60;;
5867;SDS011;2960;49.142;7.768;2024-03-22T10:45:02;12.33;;;5.10;;
5867;SDS011;2960;49.142;7.768;2024-03-22T10:47:30;11.27;;;4.37;;
5867;SDS011;2960;49.142;7.768;2024-03-22T10:50:00;11.40;;;4.60;;
5867;SDS011;2960;49.142;7.768;2024-03-22T10:52:31;11.97;;;4.20;;
5867;SDS011;2960;49.142;7.768;2024-03-22T10:55:02;12.20;;;4.50;;
5867;SDS011;2960;49.142;7.768;2024-03-22T10:57:34;11.83;;;4.90;;
5867;SDS011;2960;49.142;7.768;2024-03-22T11:00:03;11.57;;;4.30;;
5867;SDS011;2960;49.142;7.768;2024-03-22T11:02:35;11.97;;;4.57;;
5867;SDS011;2960;49.142;7.768;2024-03-22T11:05:02;11.70;;;4.40;;
5867;SDS011;2960;49.142;7.768;2024-03-22T11:07:29;12.03;;;4.53;;
5867;SDS011;2960;49.142;7.768;2024-03-22T11:09:57;11.50;;;4.57;;
5867;SDS011;2960;49.142;7.768;2024-03-22T11:12:24;12.50;;;4.63;;
5867;SDS011;2960;49.142;7.768;2024-03-22T11:14:53;12.10;;;4.77;;
5867;SDS011;2960;49.142;7.768;2024-03-22T11:17:21;12.27;;;4.60;;
5867;SDS011;2960;49.142;7.768;2024-03-22T11:19:50;11.97;;;4.60;;
5867;SDS011;2960;49.142;7.768;2024-03-22T11:22:17;11.97;;;4.93;;
5867;SDS011;2960;49.142;7.768;2024-03-22T11:24:44;11.10;;;4.30;;
5867;SDS011;2960;49.142;7.768;2024-03-22T11:27:10;11.80;;;4.80;;
5867;SDS011;2960;49.142;7.768;2024-03-22T11:29:39;11.80;;;4.90;;
5867;SDS011;2960;49.142;7.768;2024-03-22T11:32:08;11.87;;;4.70;;
5867;SDS011;2960;49.142;7.768;2024-03-22T11:34:38;11.27;;;4.40;;
5867;SDS011;2960;49.142;7.768;2024-03-22T11:37:06;11.53;;;4.90;;
5867;SDS011;2960;49.142;7.768;2024-03-22T11:39:35;12.00;;;5.40;;
5867;SDS011;2960;49.142;7.768;2024-03-22T11:42:01;11.80;;;5.43;;
5867;SDS011;2960;49.142;7.768;2024-03-22T11:44:30;13.03;;;5.93;;
5867;SDS011;2960;49.142;7.768;2024-03-22T11:46:58;13.27;;;5.67;;
5867;SDS011;2960;49.142;7.768;2024-03-22T11:49:26;12.00;;;5.50;;
5867;SDS011;2960;49.142;7.768;2024-03-22T11:51:53;11.97;;;5.50;;
5867;SDS011;2960;49.142;7.768;2024-03-22T11:54:22;11.73;;;5.30;;
5867;SDS011;2960;49.142;7.768;2024-03-22T11:56:48;12.23;;;5.90;;
5867;SDS011;2960;49.142;7.768;2024-03-22T11:59:17;12.77;;;5.73;;
5867;SDS011;2960;49.142;7.768;2024-03-22T12:01:45;12.60;;;5.77;;
5867;SDS011;2960;49.142;7.768;2024-03-22T12:04:12;12.17;;;5.40;;
5867;SDS011;2960;49.142;7.768;2024-03-22T12:06:42;13.07;;;5.63;;
5867;SDS011;2960;49.142;7.768;2024-03-22T12:09:09;14.37;;;6.10;;
5867;SDS011;2960;49.142;7.768;2024-03-22T12:11:37;13.00;;;6.10;;
5867;SDS011;2960;49.142;7.768;2024-03-22T12:14:05;11.90;;;5.27;;
5867;SDS011;2960;49.142;7.768;2024-03-22T12:16:31;12.50;;;5.80;;
5867;SDS011;2960;49.142;7.768;2024-03-22T12:18:59;12.50;;;5.90;;
5867;SDS011;2960;49.142;7.768;2024-03-22T12:21:25;11.90;;;5.57;;
5867;SDS011;2960;49.142;7.768;2024-03-22T12:23:54;13.60;;;5.83;;
5867;SDS011;2960;49.142;7.768;2024-03-22T12:26:20;12.43;;;5.77;;
5867;SDS011;2960;49.142;7.768;2024-03-22T12:28:47;12.43;;;5.70;;
5867;SDS011;2960;49.142;7.768;2024-03-22T12:31:13;14.17;;;6.00;;
5867;SDS011;2960;49.142;7.768;2024-03-22T12:33:43;16.37;;;6.27;;
5867;SDS011;2960;49.142;7.768;2024-03-22T12:36:11;12.73;;;6.07;;
5867;SDS011;2960;49.142;7.768;2024-03-22T12:38:41;15.60;;;6.53;;
5867;SDS011;2960;49.142;7.768;2024-03-22T12:41:10;13.60;;;6.70;;
5867;SDS011;2960;49.142;7.768;2024-03-22T12:43:39;13.20;;;6.33;;
5867;SDS011;2960;49.142;7.768;2024-03-22T12:46:07;14.90;;;7.20;;
5867;SDS011;2960;49.142;7.768;2024-03-22T12:48:35;14.43;;;6.70;;
5867;SDS011;2960;49.142;7.768;2024-03-22T12:51:01;16.53;;;7.67;;
5867;SDS011;2960;49.142;7.768;2024-03-22T12:53:29;14.60;;;7.00;;
5867;SDS011;2960;49.142;7.768;2024-03-22T12:55:55;14.37;;;6.97;;
5867;SDS011;2960;49.142;7.768;2024-03-22T12:58:23;13.70;;;6.73;;
5867;SDS011;2960;49.142;7.768;2024-03-22T13:00:50;15.60;;;6.60;;
5867;SDS011;2960;49.142;7.768;2024-03-22T13:03:17;14.70;;;6.77;;
5867;SDS011;2960;49.142;7.768;2024-03-22T13:05:43;13.87;;;6.43;;
5867;SDS011;2960;49.142;7.768;2024-03-22T13:08:10;15.57;;;6.47;;
5867;SDS011;2960;49.142;7.768;2024-03-22T13:10:36;15.93;;;7.00;;
5867;SDS011;2960;49.142;7.768;2024-03-22T13:13:08;12.70;;;6.40;;
5867;SDS011;2960;49.142;7.768;2024-03-22T13:15:35;13.63;;;6.43;;
5867;SDS011;2960;49.142;7.768;2024-03-22T13:18:03;12.70;;;5.83;;
5867;SDS011;2960;49.142;7.768;2024-03-22T13:20:30;14.17;;;6.43;;
5867;SDS011;2960;49.142;7.768;2024-03-22T13:22:57;16.73;;;6.63;;
5867;SDS011;2960;49.142;7.768;2024-03-22T13:25:23;15.70;;;6.33;;
5867;SDS011;2960;49.142;7.768;2024-03-22T13:27:51;14.10;;;6.70;;
5867;SDS011;2960;49.142;7.768;2024-03-22T13:30:17;13.87;;;6.87;;
5867;SDS011;2960;49.142;7.768;2024-03-22T13:32:45;16.50;;;6.90;;
5867;SDS011;2960;49.142;7.768;2024-03-22T13:35:11;14.73;;;6.60;;
5867;SDS011;2960;49.142;7.768;2024-03-22T13:37:39;16.53;;;6.47;;
5867;SDS011;2960;49.142;7.768;2024-03-22T13:40:06;12.73;;;5.73;;
5867;SDS011;2960;49.142;7.768;2024-03-22T13:42:34;13.87;;;5.87;;
5867;SDS011;2960;49.142;7.768;2024-03-22T13:45:01;12.40;;;5.37;;
5867;SDS011;2960;49.142;7.768;2024-03-22T13:47:28;13.40;;;6.13;;
5867;SDS011;2960;49.142;7.768;2024-03-22T13:49:59;12.80;;;5.80;;
5867;SDS011;2960;49.142;7.768;2024-03-22T13:52:25;13.23;;;5.97;;
5867;SDS011;2960;49.142;7.768;2024-03-22T13:54:52;13.67;;;5.57;;
5867;SDS011;2960;49.142;7.768;2024-03-22T13:57:19;12.73;;;5.77;;
5867;SDS011;2960;49.142;7.768;2024-03-22T13:59:46;12.60;;;5.50;;
5867;SDS011;2960;49.142;7.768;2024-03-22T14:02:12;13.43;;;5.90;;
5867;SDS011;2960;49.142;7.768;2024-03-22T14:04:40;12.27;;;5.47;;
5867;SDS011;2960;49.142;7.768;2024-03-22T14:07:07;13.33;;;6.03;;
5867;SDS011;2960;49.142;7.768;2024-03-22T14:09:34;14.77;;;6.47;;
5867;SDS011;2960;49.142;7.768;2024-03-22T14:12:01;15.60;;;6.53;;
5867;SDS011;2960;49.142;7.768;2024-03-22T14:14:29;15.03;;;6.33;;
5867;SDS011;2960;49.142;7.768;2024-03-22T14:16:55;12.90;;;6.13;;
5867;SDS011;2960;49.142;7.768;2024-03-22T14:19:22;13.30;;;5.80;;
5867;SDS011;2960;49.142;7.768;2024-03-22T14:21:49;13.30;;;6.30;;
5867;SDS011;2960;49.142;7.768;2024-03-22T14:24:17;17.07;;;6.10;;
5867;SDS011;2960;49.142;7.768;2024-03-22T14:26:43;14.20;;;6.10;;
5867;SDS011;2960;49.142;7.768;2024-03-22T14:29:11;14.60;;;6.60;;
5867;SDS011;2960;49.142;7.768;2024-03-22T14:31:38;14.07;;;6.50;;
5867;SDS011;2960;49.142;7.768;2024-03-22T14:34:07;14.57;;;6.70;;
5867;SDS011;2960;49.142;7.768;2024-03-22T14:36:34;16.17;;;6.90;;
5867;SDS011;2960;49.142;7.768;2024-03-22T14:39:02;14.50;;;6.57;;
5867;SDS011;2960;49.142;7.768;2024-03-22T14:41:31;16.33;;;7.47;;
5867;SDS011;2960;49.142;7.768;2024-03-22T14:43:58;15.40;;;6.70;;
5867;SDS011;2960;49.142;7.768;2024-03-22T14:46:26;14.20;;;6.50;;
5867;SDS011;2960;49.142;7.768;2024-03-22T14:48:54;14.87;;;6.83;;
5867;SDS011;2960;49.142;7.768;2024-03-22T14:51:20;16.63;;;6.60;;
5867;SDS011;2960;49.142;7.768;2024-03-22T14:53:48;15.03;;;6.40;;
5867;SDS011;2960;49.142;7.768;2024-03-22T14:56:14;16.97;;;6.77;;
5867;SDS011;2960;49.142;7.768;2024-03-22T14:58:44;15.13;;;6.50;;
5867;SDS011;2960;49.142;7.768;2024-03-22T15:01:10;14.80;;;6.17;;
5867;SDS011;2960;49.142;7.768;2024-03-22T15:03:37;15.20;;;6.93;;